createdAt,value
2018-12-19T00:01:58.323Z,6.77
2018-12-19T00:04:30.421Z,6.50
2018-12-19T00:07:02.393Z,6.70
2018-12-19T00:09:44.843Z,7.53
2018-12-19T00:12:15.050Z,6.60
2018-12-19T00:14:45.030Z,6.77
2018-12-19T00:17:17.034Z,7.30
2018-12-19T00:19:49.100Z,7.50
2018-12-19T00:22:19.109Z,7.57
2018-12-19T00:24:49.058Z,6.53
2018-12-19T00:27:21.169Z,7.57
2018-12-19T00:29:53.185Z,6.90
2018-12-19T00:32:25.275Z,6.90
2018-12-19T00:34:57.200Z,7.00
2018-12-19T00:37:27.407Z,7.60
2018-12-19T00:39:57.468Z,7.30
2018-12-19T00:42:27.775Z,7.27
2018-12-19T00:44:57.850Z,7.13
2018-12-19T00:47:28.351Z,7.67
2018-12-19T00:50:10.154Z,7.03
2018-12-19T00:52:40.190Z,6.93
2018-12-19T00:55:10.333Z,8.03
2018-12-19T00:57:40.400Z,7.13
2018-12-19T01:00:10.754Z,7.40
2018-12-19T01:02:40.713Z,7.77
2018-12-19T01:05:10.792Z,7.27
2018-12-19T01:07:52.608Z,7.63
2018-12-19T01:10:22.730Z,7.77
2018-12-19T01:13:04.307Z,7.73
2018-12-19T01:15:34.365Z,7.57
2018-12-19T01:18:04.356Z,7.63
2018-12-19T01:20:34.387Z,6.93
2018-12-19T01:23:04.419Z,7.63
2018-12-19T01:25:45.583Z,7.60
2018-12-19T01:28:15.540Z,7.93
2018-12-19T01:30:45.454Z,7.90
2018-12-19T01:33:15.541Z,7.50
2018-12-19T01:35:45.521Z,7.47
2018-12-19T01:38:15.469Z,7.20
2018-12-19T01:40:47.539Z,7.67
2018-12-19T01:43:18.711Z,7.67
2018-12-19T01:45:48.854Z,7.20
2018-12-19T01:48:18.819Z,7.60
2018-12-19T01:50:53.670Z,7.37
2018-12-19T01:53:33.965Z,8.07
2018-12-19T01:56:05.117Z,7.27
2018-12-19T01:58:35.174Z,7.43
2018-12-19T02:01:12.951Z,8.23
2018-12-19T02:03:44.672Z,7.50
2018-12-19T02:06:16.461Z,8.17
2018-12-19T02:08:48.177Z,8.03
2018-12-19T02:11:20.369Z,7.23
2018-12-19T02:13:50.219Z,6.87
2018-12-19T02:16:24.693Z,8.00
2018-12-19T02:19:14.215Z,8.13
2018-12-19T02:21:44.081Z,7.87
2018-12-19T02:24:14.152Z,7.60
2018-12-19T02:26:44.118Z,7.90
2018-12-19T02:29:15.189Z,7.17
2018-12-19T02:31:45.276Z,7.50
2018-12-19T02:34:15.510Z,7.30
2018-12-19T02:36:45.385Z,7.97
2018-12-19T02:39:15.404Z,7.47
2018-12-19T02:41:45.368Z,7.40
2018-12-19T02:44:15.253Z,7.53
2018-12-19T02:46:45.137Z,7.27
2018-12-19T02:49:15.174Z,7.50
2018-12-19T02:51:53.930Z,6.70
2018-12-19T02:54:24.022Z,6.80
2018-12-19T02:56:54.099Z,6.90
2018-12-19T02:59:24.176Z,6.60
2018-12-19T03:01:54.159Z,6.73
2018-12-19T03:04:24.256Z,6.87
2018-12-19T03:06:54.309Z,6.73
2018-12-19T03:09:24.444Z,7.23
2018-12-19T03:11:54.276Z,6.57
2018-12-19T03:14:24.098Z,6.13
2018-12-19T03:16:54.112Z,7.00
2018-12-19T03:19:34.946Z,7.10
2018-12-19T03:22:05.110Z,6.70
2018-12-19T03:24:35.283Z,7.63
2018-12-19T03:27:05.387Z,7.27
2018-12-19T03:29:35.412Z,6.60
2018-12-19T03:32:05.604Z,6.87
2018-12-19T03:34:35.504Z,6.67
2018-12-19T03:37:05.571Z,7.47
2018-12-19T03:39:35.469Z,6.90
2018-12-19T03:42:05.524Z,7.30
2018-12-19T03:44:35.522Z,7.10
2018-12-19T03:47:05.662Z,7.17
2018-12-19T03:49:36.084Z,7.10
2018-12-19T03:52:07.286Z,6.73
2018-12-19T03:54:37.257Z,7.07
2018-12-19T03:57:07.694Z,6.63
2018-12-19T03:59:37.858Z,6.67
2018-12-19T04:02:07.823Z,6.80
2018-12-19T04:04:38.115Z,6.63
2018-12-19T04:07:08.054Z,7.10
2018-12-19T04:09:58.074Z,6.47
2018-12-19T04:12:30.313Z,6.87
2018-12-19T04:15:00.268Z,6.73
2018-12-19T04:17:30.227Z,6.50
2018-12-19T04:20:00.099Z,7.20
2018-12-19T04:22:33.076Z,6.73
2018-12-19T04:25:03.183Z,6.67
2018-12-19T04:27:33.267Z,6.63
2018-12-19T04:30:03.339Z,7.30
2018-12-19T04:32:33.695Z,6.93
2018-12-19T04:35:03.839Z,7.00
2018-12-19T04:37:33.955Z,7.13
2018-12-19T04:40:05.661Z,7.13
2018-12-19T04:42:36.046Z,7.00
2018-12-19T04:45:06.041Z,7.07
2018-12-19T04:47:37.134Z,6.97
2018-12-19T04:50:07.229Z,6.80
2018-12-19T04:52:37.194Z,7.43
2018-12-19T04:55:07.213Z,7.63
2018-12-19T04:57:37.085Z,7.17
2018-12-19T05:00:07.498Z,7.17
2018-12-19T05:02:37.584Z,7.70
2018-12-19T05:05:07.814Z,6.67
2018-12-19T05:07:37.920Z,7.07
2018-12-19T05:10:12.350Z,7.50
2018-12-19T05:12:40.041Z,7.37
2018-12-19T05:15:10.036Z,7.60
2018-12-19T05:17:40.056Z,7.03
2018-12-19T05:20:11.243Z,7.10
2018-12-19T05:22:41.358Z,6.57
2018-12-19T05:25:13.216Z,7.47
2018-12-19T05:27:45.249Z,7.17
2018-12-19T05:30:15.267Z,7.00
2018-12-19T05:32:45.231Z,8.00
2018-12-19T05:35:15.256Z,7.73
2018-12-19T05:37:45.145Z,7.07
2018-12-19T05:40:19.047Z,7.97
2018-12-19T05:42:48.734Z,7.93
2018-12-19T05:45:18.726Z,7.93
2018-12-19T05:47:49.534Z,7.67
2018-12-19T05:50:22.058Z,7.20
2018-12-19T05:52:52.074Z,7.90
2018-12-19T05:55:22.046Z,7.97
2018-12-19T05:57:52.064Z,7.40
2018-12-19T06:00:23.925Z,7.87
2018-12-19T06:02:57.286Z,7.83
2018-12-19T06:05:27.270Z,8.33
2018-12-19T06:07:57.131Z,7.40
2018-12-19T06:10:27.126Z,7.73
2018-12-19T06:12:57.042Z,7.43
2018-12-19T06:15:27.292Z,7.00
2018-12-19T06:17:57.260Z,7.83
2018-12-19T06:20:27.258Z,8.40
2018-12-19T06:22:57.295Z,7.80
2018-12-19T06:25:27.396Z,8.53
2018-12-19T06:27:57.438Z,8.10
2018-12-19T06:30:27.931Z,7.20
2018-12-19T06:32:57.914Z,7.43
2018-12-19T06:35:27.854Z,7.93
2018-12-19T06:37:57.869Z,7.70
2018-12-19T06:40:32.572Z,7.60
2018-12-19T06:42:59.983Z,8.17
2018-12-19T06:45:31.345Z,8.30
2018-12-19T06:48:03.295Z,8.63
2018-12-19T06:50:34.786Z,8.63
2018-12-19T06:53:04.861Z,8.47
2018-12-19T06:55:34.935Z,7.67
2018-12-19T06:58:04.964Z,8.17
2018-12-19T07:00:35.026Z,8.10
2018-12-19T07:03:06.620Z,8.27
2018-12-19T07:05:36.743Z,8.27
2018-12-19T07:08:06.862Z,7.97
2018-12-19T07:10:39.187Z,8.23
2018-12-19T07:13:08.852Z,8.50
2018-12-19T07:18:44.975Z,8.27
2018-12-19T07:21:15.110Z,8.67
2018-12-19T07:23:45.396Z,9.20
2018-12-19T07:26:15.476Z,8.77
2018-12-19T07:28:45.607Z,8.57
2018-12-19T07:31:15.590Z,8.70
2018-12-19T07:33:45.647Z,8.60
2018-12-19T07:36:15.814Z,9.40
2018-12-19T07:38:45.777Z,9.20
2018-12-19T07:41:16.975Z,9.40
2018-12-19T07:43:46.995Z,9.30
2018-12-19T07:46:19.951Z,9.30
2018-12-19T07:48:49.678Z,9.27
2018-12-19T07:51:19.739Z,9.93
2018-12-19T07:53:50.561Z,9.23
2018-12-19T07:56:22.458Z,9.47
2018-12-19T07:58:54.246Z,10.07
2018-12-19T08:01:25.964Z,10.10
2018-12-19T08:03:57.446Z,9.07
2018-12-19T08:06:27.617Z,9.80
2018-12-19T08:08:58.148Z,10.10
2018-12-19T08:11:30.055Z,10.40
2018-12-19T08:14:00.573Z,10.77
2018-12-19T08:16:30.566Z,10.37
2018-12-19T08:19:02.783Z,10.63
2018-12-19T08:21:35.565Z,10.63
2018-12-19T08:24:05.574Z,9.40
2018-12-19T08:26:35.723Z,10.60
2018-12-19T08:29:05.901Z,10.00
2018-12-19T08:31:36.233Z,9.60
2018-12-19T08:34:06.805Z,10.30
2018-12-19T08:36:36.813Z,10.43
2018-12-19T08:39:07.073Z,9.83
2018-12-19T08:41:39.087Z,10.33
2018-12-19T08:44:09.138Z,10.83
2018-12-19T08:46:39.208Z,10.47
2018-12-19T08:49:09.238Z,11.10
2018-12-19T08:51:39.360Z,11.00
2018-12-19T08:54:09.250Z,11.30
2018-12-19T08:56:39.175Z,10.50
2018-12-19T08:59:09.185Z,10.67
2018-12-19T09:01:39.183Z,10.60
2018-12-19T09:04:09.173Z,10.83
2018-12-19T09:06:39.156Z,10.87
2018-12-19T09:09:09.117Z,11.40
2018-12-19T09:11:39.053Z,10.23
2018-12-19T09:14:09.166Z,10.87
2018-12-19T09:16:39.108Z,11.13
2018-12-19T09:19:09.135Z,10.80
2018-12-19T09:21:38.996Z,11.80
2018-12-19T09:24:09.185Z,11.27
2018-12-19T09:26:39.178Z,11.33
2018-12-19T09:29:09.158Z,11.10
2018-12-19T09:31:41.145Z,11.07
2018-12-19T09:34:12.870Z,10.93
2018-12-19T09:36:43.036Z,11.17
2018-12-19T09:39:12.994Z,11.00
2018-12-19T09:41:42.980Z,11.50
2018-12-19T09:44:13.154Z,11.50
2018-12-19T09:46:43.047Z,11.23
2018-12-19T09:49:14.081Z,11.60
2018-12-19T09:51:44.508Z,10.90
2018-12-19T09:54:14.485Z,11.07
2018-12-19T09:56:44.492Z,10.33
2018-12-19T09:59:14.696Z,11.13
2018-12-19T10:01:44.672Z,11.53
2018-12-19T10:04:14.683Z,11.90
2018-12-19T10:06:44.719Z,11.77
2018-12-19T10:09:15.138Z,11.17
2018-12-19T10:11:45.335Z,11.53
2018-12-19T10:14:15.311Z,11.40
2018-12-19T10:16:45.302Z,11.93
2018-12-19T10:19:15.404Z,11.83
2018-12-19T10:21:45.370Z,11.93
2018-12-19T10:24:15.474Z,11.73
2018-12-19T10:26:45.482Z,11.47
2018-12-19T10:29:15.533Z,11.93
2018-12-19T10:31:45.665Z,11.40
2018-12-19T10:34:15.797Z,12.03
2018-12-19T10:36:45.868Z,11.40
2018-12-19T10:39:17.747Z,12.30
2018-12-19T10:41:47.779Z,12.17
2018-12-19T10:44:18.114Z,11.80
2018-12-19T10:46:48.158Z,12.67
2018-12-19T10:49:18.254Z,12.43
2018-12-19T10:51:48.358Z,12.80
2018-12-19T10:54:18.437Z,11.33
2018-12-19T10:56:48.374Z,13.57
2018-12-19T10:59:19.988Z,11.83
2018-12-19T11:01:50.059Z,13.03
2018-12-19T11:04:20.046Z,14.33
2018-12-19T11:06:50.111Z,13.07
2018-12-19T11:09:20.209Z,11.47
2018-12-19T11:11:50.251Z,12.23
2018-12-19T11:14:20.346Z,13.00
2018-12-19T11:16:50.306Z,13.07
2018-12-19T11:19:20.284Z,12.47
2018-12-19T11:21:50.208Z,13.23
2018-12-19T11:24:20.403Z,12.57
2018-12-19T11:26:51.706Z,13.53
2018-12-19T11:29:22.171Z,12.27
2018-12-19T11:31:52.157Z,13.07
2018-12-19T11:34:22.181Z,12.10
2018-12-19T11:36:52.207Z,12.97
2018-12-19T11:39:22.270Z,12.93
2018-12-19T11:41:52.229Z,12.73
2018-12-19T11:44:22.177Z,13.53
2018-12-19T11:46:52.258Z,12.70
2018-12-19T11:49:22.316Z,13.20
2018-12-19T11:51:52.322Z,13.17
2018-12-19T11:54:22.490Z,12.63
2018-12-19T11:56:52.499Z,13.03
2018-12-19T11:59:22.641Z,13.33
2018-12-19T12:01:52.605Z,13.00
2018-12-19T12:04:22.581Z,13.03
2018-12-19T12:06:54.706Z,14.43
2018-12-19T12:09:24.861Z,13.87
2018-12-19T12:11:54.854Z,14.37
2018-12-19T12:14:24.868Z,13.90
2018-12-19T12:16:55.195Z,13.80
2018-12-19T12:19:25.141Z,13.50
2018-12-19T12:21:55.144Z,13.13
2018-12-19T12:24:25.375Z,13.17
2018-12-19T12:26:55.366Z,14.70
2018-12-19T12:29:25.371Z,13.97
2018-12-19T12:31:55.384Z,13.50
2018-12-19T12:34:25.336Z,13.53
2018-12-19T12:36:55.381Z,12.93
2018-12-19T12:39:25.469Z,13.90
2018-12-19T12:41:55.527Z,13.47
2018-12-19T12:44:25.712Z,13.83
2018-12-19T12:46:55.832Z,13.47
2018-12-19T12:49:25.797Z,14.97
2018-12-19T12:51:55.809Z,13.83
2018-12-19T12:54:25.780Z,15.50
2018-12-19T12:56:55.957Z,14.10
2018-12-19T12:59:25.975Z,15.50
2018-12-19T13:01:56.118Z,13.23
2018-12-19T13:04:26.209Z,14.23
2018-12-19T13:06:56.277Z,13.80
2018-12-19T13:09:26.258Z,14.37
2018-12-19T13:11:58.970Z,14.90
2018-12-19T13:14:28.424Z,14.80
2018-12-19T13:16:58.450Z,14.73
2018-12-19T13:19:28.550Z,14.20
2018-12-19T13:21:58.611Z,14.40
2018-12-19T13:24:28.660Z,14.90
2018-12-19T13:26:58.712Z,14.10
2018-12-19T13:29:28.794Z,15.03
2018-12-19T13:31:59.392Z,15.23
2018-12-19T13:34:29.323Z,14.80
2018-12-19T13:36:59.291Z,14.37
2018-12-19T13:39:29.489Z,14.20
2018-12-19T13:42:05.402Z,14.70
2018-12-19T13:44:32.590Z,14.60
2018-12-19T13:47:02.641Z,15.23
2018-12-19T13:49:33.751Z,15.20
2018-12-19T13:52:03.899Z,14.90
2018-12-19T13:54:33.864Z,14.47
2018-12-19T13:57:03.848Z,14.50
2018-12-19T13:59:33.930Z,14.23
2018-12-19T14:02:04.116Z,13.57
2018-12-19T14:04:34.307Z,14.57
2018-12-19T14:07:05.443Z,14.10
2018-12-19T14:09:35.478Z,14.43
2018-12-19T14:12:12.119Z,14.97
2018-12-19T14:14:37.682Z,15.10
2018-12-19T14:17:07.758Z,14.73
2018-12-19T14:19:37.792Z,15.17
2018-12-19T14:22:08.041Z,14.27
2018-12-19T14:24:38.140Z,14.33
2018-12-19T14:27:08.369Z,14.60
2018-12-19T14:29:38.709Z,14.23
2018-12-19T14:32:08.694Z,14.67
2018-12-19T14:34:38.676Z,15.13
2018-12-19T14:37:08.646Z,15.00
2018-12-19T14:39:38.663Z,13.83
2018-12-19T14:42:08.657Z,14.77
2018-12-19T14:44:38.622Z,15.00
2018-12-19T14:47:08.818Z,14.00
2018-12-19T14:49:38.926Z,14.23
2018-12-19T14:52:08.952Z,14.67
2018-12-19T14:54:39.030Z,14.83
2018-12-19T14:57:09.001Z,14.40
2018-12-19T14:59:39.109Z,14.57
2018-12-19T15:02:08.975Z,14.83
2018-12-19T15:04:38.992Z,14.20
2018-12-19T15:07:08.883Z,15.57
2018-12-19T15:09:38.864Z,14.27
2018-12-19T15:12:08.914Z,14.53
2018-12-19T15:14:39.134Z,14.60
2018-12-19T15:17:13.858Z,15.10
2018-12-19T15:19:41.333Z,14.17
2018-12-19T15:22:11.335Z,14.50
2018-12-19T15:24:41.269Z,14.40
2018-12-19T15:27:11.270Z,14.67
2018-12-19T15:29:41.279Z,14.73
2018-12-19T15:32:11.379Z,13.93
2018-12-19T15:34:41.322Z,14.10
2018-12-19T15:37:11.334Z,15.30
2018-12-19T15:39:41.324Z,14.47
2018-12-19T15:42:11.315Z,14.27
2018-12-19T15:44:41.411Z,13.90
2018-12-19T15:47:11.395Z,14.60
2018-12-19T15:49:41.492Z,13.80
2018-12-19T15:52:12.588Z,13.60
2018-12-19T15:54:42.834Z,13.17
2018-12-19T15:57:19.352Z,13.67
2018-12-19T16:00:13.510Z,13.37
2018-12-19T16:02:49.726Z,13.40
2018-12-19T16:05:25.509Z,12.93
2018-12-19T16:08:01.108Z,13.10
2018-12-19T16:10:42.912Z,13.30
2018-12-19T16:13:13.138Z,14.47
2018-12-19T16:15:44.515Z,13.60
2018-12-19T16:18:24.393Z,13.90
2018-12-19T16:20:54.561Z,13.20
2018-12-19T16:23:24.708Z,14.07
2018-12-19T16:25:54.774Z,13.63
2018-12-19T16:28:25.124Z,13.57
2018-12-19T16:30:55.052Z,14.07
2018-12-19T16:33:25.082Z,14.57
2018-12-19T16:35:55.178Z,14.30
2018-12-19T16:38:30.512Z,13.87
2018-12-19T16:41:00.577Z,13.77
2018-12-19T16:43:30.675Z,14.47
2018-12-19T16:46:01.016Z,14.37
2018-12-19T16:48:31.001Z,15.20
2018-12-19T16:51:12.363Z,14.13
2018-12-19T16:53:42.559Z,14.40
2018-12-19T16:56:12.805Z,14.37
2018-12-19T16:58:49.038Z,14.53
2018-12-19T17:01:18.954Z,13.50
2018-12-19T17:03:48.903Z,14.27
2018-12-19T17:06:18.865Z,14.43
2018-12-19T17:08:49.828Z,15.37
2018-12-19T17:11:19.809Z,15.27
2018-12-19T17:13:50.815Z,14.73
2018-12-19T17:16:22.545Z,14.53
2018-12-19T17:18:57.495Z,15.03
2018-12-19T17:21:27.501Z,14.57
2018-12-19T17:23:57.409Z,14.30
2018-12-19T17:26:27.505Z,15.67
2018-12-19T17:28:58.693Z,15.20
2018-12-19T17:31:28.856Z,15.97
2018-12-19T17:33:59.920Z,15.50
2018-12-19T17:36:29.925Z,15.73
2018-12-19T17:39:05.094Z,15.40
2018-12-19T17:41:36.307Z,15.03
2018-12-19T17:44:16.186Z,15.53
2018-12-19T17:46:46.595Z,16.07
2018-12-19T17:49:17.606Z,16.33
2018-12-19T17:51:47.682Z,16.10
2018-12-19T17:54:18.874Z,16.67
2018-12-19T17:56:52.918Z,15.80
2018-12-19T17:59:28.602Z,15.40
2018-12-19T18:01:59.155Z,15.47
2018-12-19T18:04:34.407Z,15.10
2018-12-19T18:07:18.010Z,16.77
2018-12-19T18:09:48.135Z,16.20
2018-12-19T18:12:18.409Z,16.00
2018-12-19T18:14:48.487Z,15.20
2018-12-19T18:17:18.586Z,15.93
2018-12-19T18:19:48.666Z,15.33
2018-12-19T18:22:19.490Z,15.00
2018-12-19T18:24:49.348Z,15.37
2018-12-19T18:27:19.340Z,14.80
2018-12-19T18:29:49.494Z,14.30
2018-12-19T18:32:19.771Z,15.17
2018-12-19T18:34:49.880Z,15.80
2018-12-19T18:37:20.000Z,14.80
2018-12-19T18:39:53.894Z,14.33
2018-12-19T18:42:24.028Z,13.80
2018-12-19T18:44:55.271Z,13.93
2018-12-19T18:47:26.263Z,14.70
2018-12-19T18:49:56.591Z,14.90
2018-12-19T18:52:26.809Z,14.33
2018-12-19T18:54:57.031Z,14.90
2018-12-19T18:57:29.099Z,14.83
2018-12-19T19:00:05.412Z,14.53
2018-12-19T19:02:36.601Z,14.80
2018-12-19T19:05:07.183Z,15.20
2018-12-19T19:07:37.627Z,14.70
2018-12-19T19:10:08.816Z,15.43
2018-12-19T19:12:38.972Z,15.17
2018-12-19T19:15:08.910Z,15.50
2018-12-19T19:17:38.985Z,14.90
2018-12-19T19:20:10.019Z,14.90
2018-12-19T19:22:40.168Z,14.93
2018-12-19T19:25:24.776Z,15.50
2018-12-19T19:27:54.983Z,15.13
2018-12-19T19:30:25.155Z,15.47
2018-12-19T19:32:55.270Z,15.57
2018-12-19T19:35:25.316Z,16.17
2018-12-19T19:37:55.731Z,14.97
2018-12-19T19:40:27.888Z,14.87
2018-12-19T19:42:59.211Z,14.73
2018-12-19T19:45:29.481Z,15.33
2018-12-19T19:48:00.626Z,14.63
2018-12-19T19:50:38.261Z,14.43
2018-12-19T19:53:09.645Z,14.67
2018-12-19T19:55:40.974Z,14.50
2018-12-19T19:58:11.248Z,14.50
2018-12-19T20:00:42.488Z,15.03
2018-12-19T20:03:13.650Z,15.13
2018-12-19T20:05:44.134Z,15.40
2018-12-19T20:08:15.298Z,15.33
2018-12-19T20:10:45.397Z,15.50
2018-12-19T20:13:15.817Z,14.87
2018-12-19T20:15:46.045Z,15.37
2018-12-19T20:18:17.215Z,15.80
2018-12-19T20:20:48.500Z,15.30
2018-12-19T20:23:18.730Z,15.07
2018-12-19T20:25:48.776Z,16.37
2018-12-19T20:28:19.782Z,17.00
2018-12-19T20:30:49.863Z,16.00
2018-12-19T20:33:21.194Z,16.43
2018-12-19T20:35:51.200Z,16.40
2018-12-19T20:38:21.213Z,15.30
2018-12-19T20:41:00.578Z,15.70
2018-12-19T20:43:31.675Z,15.03
2018-12-19T20:46:03.350Z,15.90
2018-12-19T20:48:33.394Z,15.90
2018-12-19T20:51:03.681Z,16.23
2018-12-19T20:53:34.295Z,16.70
2018-12-19T20:56:04.430Z,16.70
2018-12-19T20:58:34.708Z,15.70
2018-12-19T21:01:04.930Z,15.73
2018-12-19T21:03:35.097Z,16.93
2018-12-19T21:06:05.317Z,17.47
2018-12-19T21:08:35.562Z,15.43
2018-12-19T21:11:05.903Z,16.17
2018-12-19T21:13:35.907Z,16.53
2018-12-19T21:16:06.098Z,16.00
2018-12-19T21:18:41.574Z,15.23
2018-12-19T21:21:14.638Z,15.60
2018-12-19T21:23:45.323Z,17.00
2018-12-19T21:26:15.548Z,15.90
2018-12-19T21:28:45.837Z,15.70
2018-12-19T21:31:16.925Z,15.60
2018-12-19T21:33:47.093Z,15.53
2018-12-19T21:36:18.298Z,16.03
2018-12-19T21:38:48.561Z,15.47
2018-12-19T21:41:19.921Z,15.60
2018-12-19T21:43:53.854Z,16.37
2018-12-19T21:46:23.748Z,16.10
2018-12-19T21:48:57.670Z,16.30
2018-12-19T21:51:29.247Z,17.17
2018-12-19T21:53:59.327Z,15.93
2018-12-19T21:56:29.337Z,16.30
2018-12-19T21:59:04.932Z,16.13
2018-12-19T22:01:35.070Z,16.57
2018-12-19T22:04:07.001Z,16.83
2018-12-19T22:06:37.062Z,16.40
2018-12-19T22:09:09.449Z,16.37
2018-12-19T22:11:39.630Z,16.43
2018-12-19T22:14:10.754Z,15.77
2018-12-19T22:16:46.304Z,16.93
2018-12-19T22:19:16.513Z,16.43
2018-12-19T22:21:46.771Z,15.67
2018-12-19T22:24:16.924Z,16.73
2018-12-19T22:26:47.108Z,16.00
2018-12-19T22:29:17.206Z,16.83
2018-12-19T22:31:51.100Z,16.03
2018-12-19T22:34:22.639Z,16.70
2018-12-19T22:36:52.690Z,15.40
2018-12-19T22:39:23.120Z,16.67
2018-12-19T22:41:53.342Z,17.80
2018-12-19T22:44:23.472Z,17.03
2018-12-19T22:46:53.772Z,16.63
2018-12-19T22:49:24.504Z,17.20
2018-12-19T22:51:54.675Z,16.37
2018-12-19T22:54:24.902Z,16.57
2018-12-19T22:56:55.401Z,16.13
2018-12-19T22:59:25.598Z,16.93
2018-12-19T23:02:02.281Z,17.33
2018-12-19T23:04:32.522Z,15.93
2018-12-19T23:07:02.724Z,17.03
2018-12-19T23:09:32.871Z,16.10
2018-12-19T23:12:03.155Z,15.57
2018-12-19T23:14:33.243Z,16.80
2018-12-19T23:17:14.070Z,16.60
2018-12-19T23:19:49.915Z,15.70
2018-12-19T23:34:20.343Z,17.00
2018-12-19T23:36:52.297Z,16.93
2018-12-19T23:39:22.352Z,16.57
2018-12-19T23:44:55.781Z,17.70
2018-12-19T23:47:25.853Z,16.37
2018-12-19T23:49:55.982Z,17.47
2018-12-19T23:52:26.162Z,17.27
2018-12-19T23:54:56.427Z,16.60
2018-12-19T23:57:26.456Z,16.37
2018-12-19T23:59:56.566Z,18.70
